Time,TemperatureF,DewpointF,PressureIn,WindDirection,WindDirectionDegrees,WindSpeedMPH,WindSpeedGustMPH,Humidity,HourlyPrecipIn,Conditions,Clouds,dailyrainin,SoftwareType,DateUTC
2013-02-18 00:00:00,46.7,40.9,30.15,ENE,68,0.0,5.0,80,0.00,,,0.00,VWS V14.01,2013-02-18 06:00:00,
2013-02-18 01:00:00,45.4,40.5,30.11,ENE,68,0.0,3.0,83,0.00,,,0.00,VWS V14.01,2013-02-18 07:00:00,
2013-02-18 02:00:00,45.4,40.5,30.11,ENE,68,0.0,3.0,83,0.00,,,0.00,VWS V14.01,2013-02-18 08:00:00,
2013-02-18 03:00:00,43.8,39.9,30.08,ENE,68,0.0,3.0,86,0.00,,,0.00,VWS V14.01,2013-02-18 09:00:00,
2013-02-18 04:00:00,43.8,39.9,30.08,ENE,68,0.0,3.0,86,0.00,,,0.00,VWS V14.01,2013-02-18 10:00:00,
2013-02-18 05:00:00,45.4,42.1,30.07,East,90,0.0,6.0,88,0.00,,,0.00,VWS V14.01,2013-02-18 11:00:00,
2013-02-18 06:00:00,45.4,42.1,30.07,East,90,0.0,6.0,88,0.00,,,0.00,VWS V14.01,2013-02-18 12:00:00,
2013-02-18 07:00:00,49.2,45.2,30.07,East,90,0.0,7.0,86,0.00,,,0.00,VWS V14.01,2013-02-18 13:00:00,
2013-02-18 08:00:00,49.2,45.2,30.07,East,90,0.0,7.0,86,0.00,,,0.00,VWS V14.01,2013-02-18 14:00:00,
2013-02-18 09:00:00,57.1,47.4,30.07,East,90,1.0,9.0,70,0.00,,,0.00,VWS V14.01,2013-02-18 15:00:00,
2013-02-18 10:00:00,57.1,47.4,30.07,East,90,1.0,9.0,70,0.00,,,0.00,VWS V14.01,2013-02-18 16:00:00,
2013-02-18 11:00:00,65.0,54.2,30.04,East,90,3.0,16.0,68,0.00,,,0.00,VWS V14.01,2013-02-18 17:00:00,
2013-02-18 12:00:00,65.0,54.2,30.04,East,90,3.0,16.0,68,0.00,,,0.00,VWS V14.01,2013-02-18 18:00:00,
2013-02-18 13:00:00,64.3,56.2,29.98,East,90,1.0,14.0,75,0.00,,,0.00,VWS V14.01,2013-02-18 19:00:00,
2013-02-18 14:00:00,64.3,56.2,29.98,East,90,1.0,14.0,75,0.00,,,0.00,VWS V14.01,2013-02-18 20:00:00,
2013-02-18 15:00:00,65.1,57.7,29.93,SE,135,3.0,20.0,77,0.00,,,0.00,VWS V14.01,2013-02-18 21:00:00,
2013-02-18 16:00:00,65.1,57.7,29.93,SE,135,3.0,20.0,77,0.00,,,0.00,VWS V14.01,2013-02-18 22:00:00,
2013-02-18 17:00:00,63.8,56.1,29.91,East,90,1.0,13.0,76,0.00,,,0.00,VWS V14.01,2013-02-18 23:00:00,
2013-02-18 18:00:00,63.8,56.1,29.91,East,90,1.0,13.0,76,0.00,,,0.00,VWS V14.01,2013-02-19 00:00:00,
2013-02-18 19:00:00,64.0,58.1,29.91,SE,135,1.0,18.0,81,0.00,,,0.00,VWS V14.01,2013-02-19 01:00:00,
2013-02-18 20:00:00,64.0,58.1,29.91,SE,135,1.0,18.0,81,0.00,,,0.00,VWS V14.01,2013-02-19 02:00:00,
2013-02-18 21:00:00,64.8,59.9,29.90,SE,135,3.0,20.0,84,0.00,,,0.00,VWS V14.01,2013-02-19 03:00:00,
2013-02-18 22:00:00,64.8,59.9,29.90,SE,135,3.0,20.0,84,0.00,,,0.00,VWS V14.01,2013-02-19 04:00:00,
2013-02-18 23:00:00,65.4,61.8,29.90,SSE,158,6.0,19.0,88,0.01,,,0.01,VWS V14.01,2013-02-19 05:00:00,